createdAt,value
2023-05-06T00:01:07.940Z,23.45
2023-05-06T00:03:36.040Z,27.10
2023-05-06T00:06:07.102Z,24.10
2023-05-06T00:08:35.040Z,27.58
2023-05-06T00:11:03.012Z,27.38
2023-05-06T00:13:31.005Z,27.05
2023-05-06T00:15:59.041Z,27.95
2023-05-06T00:18:27.070Z,25.95
2023-05-06T00:20:55.093Z,27.77
2023-05-06T00:23:24.384Z,27.73
2023-05-06T00:25:54.185Z,26.48
2023-05-06T00:28:22.156Z,28.30
2023-05-06T00:30:50.146Z,27.15
2023-05-06T00:33:18.074Z,28.20
2023-05-06T00:35:46.079Z,25.58
2023-05-06T00:38:15.609Z,27.40
2023-05-06T00:40:44.909Z,29.63
2023-05-06T00:43:12.866Z,26.95
2023-05-06T00:45:41.392Z,24.50
2023-05-06T00:48:09.676Z,25.27
2023-05-06T00:50:40.501Z,25.30
2023-05-06T00:53:10.975Z,28.48
2023-05-06T00:55:39.790Z,27.58
2023-05-06T00:58:09.894Z,24.27
2023-05-06T01:00:37.860Z,24.80
2023-05-06T01:03:05.949Z,26.23
2023-05-06T01:05:41.390Z,26.63
2023-05-06T01:08:17.974Z,32.33
2023-05-06T01:10:50.792Z,30.63
2023-05-06T01:13:31.180Z,30.38
2023-05-06T01:16:02.376Z,30.77
2023-05-06T01:18:33.175Z,30.55
2023-05-06T01:21:03.324Z,32.50
2023-05-06T01:23:51.499Z,25.67
2023-05-06T01:26:19.462Z,29.02
2023-05-06T01:28:47.485Z,29.60
2023-05-06T01:31:21.678Z,24.77
2023-05-06T01:33:55.861Z,28.30
2023-05-06T01:36:29.636Z,27.05
2023-05-06T01:39:03.510Z,26.40
2023-05-06T01:41:34.380Z,27.17
2023-05-06T01:44:02.948Z,29.98
2023-05-06T01:46:32.732Z,33.03
2023-05-06T01:49:05.118Z,28.77
2023-05-06T01:51:34.223Z,26.92
2023-05-06T01:54:03.561Z,31.65
2023-05-06T01:56:32.019Z,30.38
2023-05-06T01:59:00.135Z,29.42
2023-05-06T02:01:28.287Z,29.77
2023-05-06T02:03:56.476Z,30.25
2023-05-06T02:06:24.485Z,29.85
2023-05-06T02:08:52.784Z,28.33
2023-05-06T02:11:22.160Z,26.35
2023-05-06T02:13:50.171Z,28.00
2023-05-06T02:16:18.157Z,27.35
2023-05-06T02:18:46.108Z,25.98
2023-05-06T02:21:14.191Z,25.75
2023-05-06T02:23:42.175Z,25.50
2023-05-06T02:26:10.657Z,27.02
2023-05-06T02:28:40.034Z,26.65
2023-05-06T02:31:08.106Z,23.98
2023-05-06T02:33:36.177Z,24.17
2023-05-06T02:36:04.320Z,26.60
2023-05-06T02:38:32.297Z,25.27
2023-05-06T02:41:00.294Z,26.42
2023-05-06T02:43:28.271Z,26.40
2023-05-06T02:45:57.631Z,25.30
2023-05-06T02:48:25.612Z,28.17
2023-05-06T02:50:53.643Z,29.63
2023-05-06T02:53:22.032Z,27.60
2023-05-06T02:55:50.006Z,27.27
2023-05-06T02:58:17.959Z,26.42
2023-05-06T03:00:45.954Z,25.90
2023-05-06T03:03:15.357Z,26.95
2023-05-06T03:05:43.248Z,29.15
2023-05-06T03:08:11.224Z,29.83
2023-05-06T03:10:39.189Z,29.88
2023-05-06T03:13:07.222Z,25.95
2023-05-06T03:15:35.244Z,27.13
2023-05-06T03:18:03.273Z,27.83
2023-05-06T03:20:32.689Z,27.42
2023-05-06T03:23:00.660Z,27.83
2023-05-06T03:25:28.718Z,27.13
2023-05-06T03:27:56.662Z,25.30
2023-05-06T03:30:24.632Z,26.95
2023-05-06T03:32:52.682Z,26.67
2023-05-06T03:35:21.179Z,24.33
2023-05-06T03:37:50.561Z,27.65
2023-05-06T03:40:18.760Z,29.08
2023-05-06T03:42:47.180Z,26.17
2023-05-06T03:45:15.184Z,28.42
2023-05-06T03:47:43.699Z,27.02
2023-05-06T03:50:11.887Z,29.30
2023-05-06T03:52:40.124Z,28.83
2023-05-06T03:55:10.975Z,30.75
2023-05-06T03:57:39.810Z,31.92
2023-05-06T04:00:09.107Z,28.27
2023-05-06T04:02:38.114Z,28.90
2023-05-06T04:05:07.720Z,28.58
2023-05-06T04:07:36.116Z,32.17
2023-05-06T04:10:04.143Z,32.97
2023-05-06T04:12:33.487Z,30.90
2023-05-06T04:15:01.598Z,28.10
2023-05-06T04:17:29.570Z,28.95
2023-05-06T04:19:57.760Z,31.38
2023-05-06T04:22:25.848Z,29.67
2023-05-06T04:24:53.871Z,29.77
2023-05-06T04:27:21.890Z,27.73
2023-05-06T04:29:51.253Z,26.83
2023-05-06T04:32:19.219Z,28.25
2023-05-06T04:34:47.405Z,29.95
2023-05-06T04:37:15.443Z,27.73
2023-05-06T04:39:47.246Z,33.33
2023-05-06T04:42:16.146Z,33.22
2023-05-06T04:44:44.402Z,31.88
2023-05-06T04:47:13.895Z,32.17
2023-05-06T04:49:42.364Z,33.25
2023-05-06T04:52:10.384Z,36.10
2023-05-06T04:54:38.339Z,31.50
2023-05-06T04:57:06.326Z,32.05
2023-05-06T04:59:34.361Z,38.13
2023-05-06T05:02:02.449Z,31.85
2023-05-06T05:04:31.804Z,34.78
2023-05-06T05:06:59.789Z,32.60
2023-05-06T05:09:27.726Z,30.95
2023-05-06T05:11:55.654Z,31.60
2023-05-06T05:14:23.633Z,35.72
2023-05-06T05:16:51.730Z,30.60
2023-05-06T05:19:19.733Z,36.17
2023-05-06T05:21:49.233Z,36.95
2023-05-06T05:24:17.224Z,38.20
2023-05-06T05:26:45.198Z,38.45
2023-05-06T05:29:13.199Z,45.72
2023-05-06T05:31:41.444Z,39.25
2023-05-06T05:34:09.563Z,37.38
2023-05-06T05:36:37.562Z,40.92
2023-05-06T05:39:07.030Z,39.35
2023-05-06T05:41:34.959Z,39.90
2023-05-06T05:44:02.958Z,41.90
2023-05-06T05:46:31.160Z,41.35
2023-05-06T05:48:59.131Z,42.40
2023-05-06T05:51:27.014Z,45.53
2023-05-06T05:53:55.004Z,39.60
2023-05-06T05:56:24.369Z,38.88
2023-05-06T05:58:52.426Z,41.65
2023-05-06T06:01:20.403Z,46.08
2023-05-06T06:03:48.599Z,41.83
2023-05-06T06:06:16.730Z,38.53
2023-05-06T06:08:44.736Z,43.25
2023-05-06T06:11:12.866Z,44.38
2023-05-06T06:13:42.268Z,46.75
2023-05-06T06:16:10.348Z,37.47
2023-05-06T06:18:38.386Z,38.58
2023-05-06T06:21:06.638Z,40.30
2023-05-06T06:23:34.886Z,44.58
2023-05-06T06:26:03.921Z,43.47
2023-05-06T06:28:32.354Z,39.83
2023-05-06T06:31:01.937Z,55.30
2023-05-06T06:33:30.023Z,48.47
2023-05-06T06:35:58.536Z,41.53
2023-05-06T06:38:26.852Z,38.65
2023-05-06T06:40:54.869Z,43.13
2023-05-06T06:43:23.828Z,44.80
2023-05-06T06:45:52.154Z,41.65
2023-05-06T06:48:21.597Z,51.60
2023-05-06T06:50:49.564Z,51.28
2023-05-06T06:53:17.811Z,48.15
2023-05-06T06:55:45.884Z,38.55
2023-05-06T06:58:13.935Z,43.22
2023-05-06T07:00:41.950Z,40.45
2023-05-06T07:03:10.078Z,39.58
2023-05-06T07:05:39.539Z,42.00
2023-05-06T07:08:07.514Z,38.40
2023-05-06T07:10:35.911Z,44.47
2023-05-06T07:13:04.001Z,40.33
2023-05-06T07:15:32.073Z,44.45
2023-05-06T07:18:00.099Z,46.92
2023-05-06T07:20:28.129Z,32.78
2023-05-06T07:22:57.460Z,32.85
2023-05-06T07:25:25.499Z,34.10
2023-05-06T07:27:53.412Z,26.48
2023-05-06T07:30:25.222Z,24.38
2023-05-06T07:32:53.308Z,30.55
2023-05-06T07:35:21.295Z,26.02
2023-05-06T07:37:49.394Z,31.10
2023-05-06T07:40:18.713Z,24.40
2023-05-06T07:42:46.675Z,24.58
2023-05-06T07:45:15.193Z,24.95
2023-05-06T07:47:43.313Z,20.42
2023-05-06T07:50:11.842Z,19.38
2023-05-06T07:52:39.844Z,19.38
2023-05-06T07:55:10.138Z,20.75
2023-05-06T07:57:39.631Z,22.90
2023-05-06T08:00:10.056Z,22.98
2023-05-06T08:02:39.451Z,20.63
2023-05-06T08:05:08.890Z,18.85
2023-05-06T08:07:37.299Z,17.80
2023-05-06T08:10:06.003Z,20.23
2023-05-06T08:12:34.138Z,27.17
2023-05-06T08:15:03.839Z,28.45
2023-05-06T08:17:31.926Z,28.77
2023-05-06T08:20:00.180Z,36.90
2023-05-06T08:22:28.169Z,31.00
2023-05-06T08:24:57.431Z,31.08
2023-05-06T08:27:25.494Z,28.15
2023-05-06T08:29:53.672Z,26.08
2023-05-06T08:32:23.055Z,28.92
2023-05-06T08:34:51.355Z,25.17
2023-05-06T08:37:19.318Z,25.70
2023-05-06T08:39:47.244Z,25.23
2023-05-06T08:42:17.317Z,21.02
2023-05-06T08:47:37.753Z,20.45
2023-05-06T08:50:06.485Z,21.98
2023-05-06T08:52:35.537Z,23.17
2023-05-06T08:55:05.350Z,24.25
2023-05-06T08:57:34.960Z,20.10
2023-05-06T09:00:04.244Z,22.25
2023-05-06T09:02:32.279Z,19.90
2023-05-06T09:05:02.197Z,19.35
2023-05-06T09:07:30.269Z,20.88
2023-05-06T09:09:58.244Z,19.00
2023-05-06T09:12:26.405Z,25.02
2023-05-06T09:14:55.929Z,18.00
2023-05-06T09:17:26.580Z,15.18
2023-05-06T09:19:57.279Z,16.02
2023-05-06T09:22:31.147Z,16.90
2023-05-06T09:25:00.169Z,19.23
2023-05-06T09:27:29.688Z,15.30
2023-05-06T09:30:02.647Z,18.50
2023-05-06T09:32:31.000Z,17.10
2023-05-06T09:34:59.994Z,14.00
2023-05-06T09:37:29.559Z,15.45
2023-05-06T09:39:59.634Z,16.48
2023-05-06T09:42:28.830Z,14.57
2023-05-06T09:45:00.650Z,15.52
2023-05-06T09:47:36.501Z,18.05
2023-05-06T09:50:05.424Z,12.80
2023-05-06T09:52:35.077Z,12.93
2023-05-06T09:55:04.434Z,14.73
2023-05-06T09:57:33.452Z,15.80
2023-05-06T10:00:02.688Z,17.17
2023-05-06T10:02:31.703Z,14.32
2023-05-06T10:05:00.556Z,17.50
2023-05-06T10:07:30.668Z,14.80
2023-05-06T10:10:01.313Z,16.40
2023-05-06T10:12:30.247Z,15.98
2023-05-06T10:14:58.368Z,11.02
2023-05-06T10:17:27.058Z,13.25
2023-05-06T10:20:00.485Z,14.82
2023-05-06T10:22:36.679Z,12.55
2023-05-06T10:25:16.877Z,9.45
2023-05-06T10:27:46.953Z,13.25
2023-05-06T10:30:17.574Z,11.13
2023-05-06T10:32:46.493Z,11.57
2023-05-06T10:35:23.692Z,8.95
2023-05-06T10:37:53.245Z,10.15
2023-05-06T10:40:24.245Z,11.32
2023-05-06T10:42:52.313Z,9.05
2023-05-06T10:45:20.508Z,6.75
2023-05-06T10:48:08.668Z,8.43
2023-05-06T10:50:36.728Z,8.70
2023-05-06T10:53:04.769Z,10.57
2023-05-06T10:55:35.826Z,9.52
2023-05-06T10:58:05.236Z,10.05
2023-05-06T11:00:34.245Z,8.63
2023-05-06T11:03:09.862Z,7.60
2023-05-06T11:05:49.691Z,7.53
2023-05-06T11:08:23.620Z,8.88
2023-05-06T11:10:53.156Z,8.70
2023-05-06T11:13:23.819Z,8.80
2023-05-06T11:15:52.375Z,12.35
2023-05-06T11:18:43.226Z,10.70
2023-05-06T11:21:37.829Z,7.35
2023-05-06T11:24:10.675Z,7.78
2023-05-06T11:26:41.465Z,12.65
2023-05-06T11:29:10.075Z,10.40
2023-05-06T11:31:43.493Z,9.57
2023-05-06T11:34:14.065Z,7.68
2023-05-06T11:36:50.134Z,9.95
2023-05-06T11:39:18.171Z,10.45
2023-05-06T11:41:47.643Z,10.57
2023-05-06T11:44:30.148Z,11.48
2023-05-06T11:46:59.084Z,11.35
2023-05-06T11:49:27.961Z,12.13
2023-05-06T11:51:57.031Z,11.93
2023-05-06T11:54:27.444Z,12.25
2023-05-06T11:56:58.069Z,10.23
2023-05-06T11:59:31.020Z,11.95
2023-05-06T12:02:00.578Z,9.82
2023-05-06T12:04:29.088Z,9.98
2023-05-06T12:06:58.001Z,9.45
2023-05-06T12:09:26.432Z,10.13
2023-05-06T12:11:56.534Z,8.70
2023-05-06T12:14:24.731Z,9.65
2023-05-06T12:16:54.769Z,10.73
2023-05-06T12:19:24.189Z,12.40
2023-05-06T12:21:52.340Z,8.32
2023-05-06T12:24:29.208Z,11.85
2023-05-06T12:26:59.225Z,7.22
2023-05-06T12:29:27.193Z,7.15
2023-05-06T12:32:09.145Z,8.80
2023-05-06T12:34:38.573Z,8.10
2023-05-06T12:37:07.371Z,9.00
2023-05-06T12:39:36.120Z,11.10
2023-05-06T12:42:06.910Z,10.52
2023-05-06T12:44:37.007Z,7.68
2023-05-06T12:47:07.415Z,8.80
2023-05-06T12:49:49.160Z,9.48
2023-05-06T12:52:18.425Z,9.02
2023-05-06T12:54:46.962Z,10.88
2023-05-06T12:57:17.156Z,10.35
2023-05-06T12:59:46.357Z,9.48
2023-05-06T13:02:14.703Z,10.10
2023-05-06T13:04:43.182Z,9.05
2023-05-06T13:07:11.247Z,9.98
2023-05-06T13:09:39.283Z,9.57
2023-05-06T13:12:07.947Z,9.32
2023-05-06T13:14:39.923Z,8.80
2023-05-06T13:17:08.743Z,8.65
2023-05-06T13:19:37.246Z,7.35
2023-05-06T13:22:05.476Z,6.55
2023-05-06T13:24:33.623Z,6.82
2023-05-06T13:27:02.077Z,7.47
2023-05-06T13:29:30.507Z,8.82
2023-05-06T13:32:00.705Z,6.97
2023-05-06T13:34:29.594Z,9.10
2023-05-06T13:36:57.607Z,8.43
2023-05-06T13:39:25.828Z,7.53
2023-05-06T13:41:54.293Z,9.25
2023-05-06T13:44:22.712Z,7.60
2023-05-06T13:46:51.208Z,6.68
2023-05-06T13:49:20.986Z,8.85
2023-05-06T13:51:48.972Z,8.85
2023-05-06T13:54:16.998Z,9.50
2023-05-06T13:56:45.055Z,9.18
2023-05-06T13:59:13.992Z,12.95
2023-05-06T14:01:42.633Z,10.57
2023-05-06T14:04:10.761Z,12.57
2023-05-06T14:06:40.577Z,10.85
2023-05-06T14:09:09.005Z,9.32
2023-05-06T14:11:37.036Z,11.38
2023-05-06T14:14:06.343Z,11.32
2023-05-06T14:16:34.332Z,10.32
2023-05-06T14:19:02.423Z,11.23
2023-05-06T14:21:30.535Z,11.40
2023-05-06T14:24:00.142Z,11.38
2023-05-06T14:26:28.374Z,12.10
2023-05-06T14:28:56.421Z,15.98
2023-05-06T14:31:24.418Z,13.23
2023-05-06T14:33:52.438Z,12.45
2023-05-06T14:36:20.728Z,12.32
2023-05-06T14:38:48.845Z,15.63
2023-05-06T14:41:18.219Z,12.32
2023-05-06T14:43:46.518Z,10.95
2023-05-06T14:46:15.912Z,12.95
2023-05-06T14:48:45.403Z,11.93
2023-05-06T14:51:13.540Z,12.20
2023-05-06T14:53:41.514Z,11.23
2023-05-06T14:56:10.456Z,13.05
2023-05-06T14:58:40.237Z,11.68
2023-05-06T15:01:08.368Z,11.25
2023-05-06T15:03:37.126Z,11.38
2023-05-06T15:06:05.969Z,11.50
2023-05-06T15:08:34.062Z,9.10
2023-05-06T15:11:04.010Z,8.45
2023-05-06T15:13:32.315Z,7.18
2023-05-06T15:16:01.835Z,8.35
2023-05-06T15:18:29.855Z,7.35
2023-05-06T15:20:58.692Z,7.45
2023-05-06T15:23:26.730Z,5.78
2023-05-06T15:25:54.751Z,7.45
2023-05-06T15:28:24.554Z,5.05
2023-05-06T15:30:52.823Z,6.13
2023-05-06T15:33:22.161Z,6.10
2023-05-06T15:35:50.385Z,5.90
2023-05-06T15:38:18.322Z,5.53
2023-05-06T15:40:51.981Z,6.72
2023-05-06T15:43:23.320Z,5.15
2023-05-06T15:45:51.944Z,6.82
2023-05-06T15:48:19.946Z,6.72
2023-05-06T15:50:49.312Z,4.60
2023-05-06T15:53:17.310Z,7.10
2023-05-06T15:55:52.980Z,7.70
2023-05-06T15:58:25.383Z,6.22
2023-05-06T16:00:53.410Z,5.60
2023-05-06T16:03:21.468Z,9.82
2023-05-06T16:05:54.363Z,7.60
2023-05-06T16:08:22.298Z,8.48
2023-05-06T16:10:50.490Z,5.47
2023-05-06T16:13:20.067Z,7.65
2023-05-06T16:15:48.593Z,10.15
2023-05-06T16:18:16.685Z,11.38
2023-05-06T16:20:44.647Z,9.25
2023-05-06T16:23:16.261Z,9.63
2023-05-06T16:25:44.208Z,9.13
2023-05-06T16:28:12.185Z,6.85
2023-05-06T16:30:40.862Z,11.80
2023-05-06T16:33:08.844Z,11.90
2023-05-06T16:35:36.788Z,11.95
2023-05-06T16:38:04.703Z,11.77
2023-05-06T16:40:40.705Z,11.48
2023-05-06T16:43:08.626Z,14.57
2023-05-06T16:45:36.625Z,13.63
2023-05-06T16:48:04.902Z,14.52
2023-05-06T16:50:33.000Z,12.80
2023-05-06T16:53:01.103Z,11.73
2023-05-06T16:55:29.091Z,14.30
2023-05-06T16:58:00.490Z,13.07
2023-05-06T17:00:28.927Z,10.60
2023-05-06T17:02:56.967Z,12.63
2023-05-06T17:05:24.988Z,11.35
2023-05-06T17:07:52.949Z,11.27
2023-05-06T17:10:21.996Z,9.48
2023-05-06T17:12:50.005Z,11.73
2023-05-06T17:15:19.438Z,12.15
2023-05-06T17:17:47.391Z,10.80
2023-05-06T17:20:15.718Z,9.85
2023-05-06T17:22:43.689Z,10.38
2023-05-06T17:25:11.669Z,10.73
2023-05-06T17:27:39.599Z,10.25
2023-05-06T17:30:09.593Z,9.80
2023-05-06T17:32:39.312Z,12.15
2023-05-06T17:35:08.523Z,13.82
2023-05-06T17:37:36.566Z,12.13
2023-05-06T17:40:06.006Z,13.05
2023-05-06T17:42:34.987Z,12.25
2023-05-06T17:45:03.050Z,17.10
2023-05-06T17:47:31.037Z,16.55
2023-05-06T17:50:00.661Z,16.10
2023-05-06T17:52:28.754Z,16.90
2023-05-06T17:55:11.154Z,20.95
2023-05-06T17:57:43.373Z,20.85
2023-05-06T18:00:12.433Z,18.17
2023-05-06T18:02:41.427Z,21.38
2023-05-06T18:05:11.698Z,17.42
2023-05-06T18:07:42.602Z,17.85
2023-05-06T18:10:12.894Z,18.77
2023-05-06T18:12:40.962Z,17.05
2023-05-06T18:15:10.064Z,19.08
2023-05-06T18:17:38.494Z,18.30
2023-05-06T18:20:07.915Z,19.10
2023-05-06T18:22:37.217Z,14.43
2023-05-06T18:25:05.760Z,15.57
2023-05-06T18:27:33.669Z,16.00
2023-05-06T18:30:01.685Z,16.00
2023-05-06T18:32:29.701Z,13.43
2023-05-06T18:34:57.769Z,15.23
2023-05-06T18:37:25.826Z,15.68
2023-05-06T18:39:55.213Z,15.93
2023-05-06T18:42:23.754Z,20.15
2023-05-06T18:44:51.748Z,16.63
2023-05-06T18:47:20.390Z,20.17
2023-05-06T18:49:48.615Z,17.48
2023-05-06T18:52:17.766Z,16.30
2023-05-06T18:54:46.304Z,18.02
2023-05-06T18:57:15.687Z,16.17
2023-05-06T18:59:43.693Z,19.23
2023-05-06T19:02:11.664Z,17.25
2023-05-06T19:04:39.660Z,17.60
2023-05-06T19:07:07.626Z,22.02
2023-05-06T19:09:37.146Z,18.98
2023-05-06T19:12:05.354Z,19.40
2023-05-06T19:14:35.418Z,17.55
2023-05-06T19:17:04.827Z,21.65
2023-05-06T19:19:32.994Z,18.38
2023-05-06T19:22:02.240Z,20.85
2023-05-06T19:24:31.188Z,27.42
2023-05-06T19:26:59.185Z,23.17
2023-05-06T19:29:27.185Z,23.40
2023-05-06T19:31:56.491Z,26.27
2023-05-06T19:34:24.494Z,26.85
2023-05-06T19:36:52.518Z,29.50
2023-05-06T19:39:21.354Z,26.35
2023-05-06T19:41:49.401Z,29.20
2023-05-06T19:44:17.440Z,31.08
2023-05-06T19:46:45.514Z,28.80
2023-05-06T19:49:14.921Z,35.00
2023-05-06T19:51:42.962Z,33.15
2023-05-06T19:54:10.917Z,36.80
2023-05-06T19:56:39.025Z,35.92
2023-05-06T19:59:07.091Z,35.13
2023-05-06T20:01:35.087Z,42.38
2023-05-06T20:04:03.890Z,43.63
2023-05-06T20:06:33.212Z,38.90
2023-05-06T20:09:01.184Z,35.83
2023-05-06T20:11:29.119Z,37.42
2023-05-06T20:13:57.125Z,40.03
2023-05-06T20:16:25.302Z,38.63
2023-05-06T20:18:53.996Z,36.72
2023-05-06T20:21:22.087Z,40.63
2023-05-06T20:23:51.493Z,38.03
2023-05-06T20:26:19.490Z,38.50
2023-05-06T20:28:47.437Z,41.08
2023-05-06T20:31:15.486Z,40.05
2023-05-06T20:33:43.700Z,41.65
2023-05-06T20:36:11.717Z,33.33
2023-05-06T20:38:39.723Z,40.58
2023-05-06T20:41:09.124Z,39.00
2023-05-06T20:43:37.141Z,46.72
2023-05-06T20:46:05.485Z,39.85
2023-05-06T20:48:33.556Z,38.53
2023-05-06T20:51:01.586Z,42.30
2023-05-06T20:53:29.574Z,38.33
2023-05-06T20:55:57.609Z,35.67
2023-05-06T20:58:28.529Z,39.17
2023-05-06T21:00:57.304Z,38.60
2023-05-06T21:03:26.579Z,39.25
2023-05-06T21:05:54.679Z,34.72
2023-05-06T21:08:22.690Z,40.00
2023-05-06T21:10:50.693Z,39.05
2023-05-06T21:13:18.784Z,39.90
2023-05-06T21:15:48.185Z,36.72
2023-05-06T21:18:17.209Z,37.05
2023-05-06T21:20:45.283Z,38.65
2023-05-06T21:23:13.312Z,34.65
2023-05-06T21:25:41.272Z,37.67
2023-05-06T21:28:09.204Z,33.42
2023-05-06T21:30:37.584Z,35.00
2023-05-06T21:33:08.363Z,36.42
2023-05-06T21:35:36.511Z,35.63
2023-05-06T21:38:04.690Z,36.50
2023-05-06T21:40:32.625Z,34.20
2023-05-06T21:43:00.651Z,33.25
2023-05-06T21:45:29.123Z,34.38
2023-05-06T21:47:57.165Z,33.47
2023-05-06T21:50:27.572Z,34.67
2023-05-06T21:52:55.593Z,32.33
2023-05-06T21:55:23.673Z,41.60
2023-05-06T21:57:51.656Z,36.65
2023-05-06T22:00:20.105Z,29.63
2023-05-06T22:02:48.174Z,31.27
2023-05-06T22:05:16.276Z,30.10
2023-05-06T22:07:45.604Z,31.17
2023-05-06T22:10:13.653Z,32.85
2023-05-06T22:12:41.666Z,31.20
2023-05-06T22:15:10.615Z,29.02
2023-05-06T22:17:39.006Z,27.00
2023-05-06T22:20:10.881Z,32.53
2023-05-06T22:22:39.363Z,31.95
2023-05-06T22:25:10.244Z,31.02
2023-05-06T22:27:38.579Z,33.75
2023-05-06T22:30:08.132Z,34.00
2023-05-06T22:32:36.214Z,34.15
2023-05-06T22:35:04.297Z,32.78
2023-05-06T22:37:32.327Z,32.95
2023-05-06T22:40:00.543Z,31.13
2023-05-06T22:42:29.956Z,32.38
2023-05-06T22:44:57.953Z,32.85
2023-05-06T22:47:26.139Z,33.13
2023-05-06T22:49:54.139Z,35.60
2023-05-06T22:52:22.171Z,38.28
2023-05-06T22:54:50.157Z,34.20
2023-05-06T22:57:19.095Z,36.85
2023-05-06T22:59:48.555Z,35.42
2023-05-06T23:02:16.590Z,36.53
2023-05-06T23:04:44.557Z,33.28
2023-05-06T23:07:13.736Z,39.92
2023-05-06T23:09:41.764Z,36.40
2023-05-06T23:12:09.712Z,37.15
2023-05-06T23:14:37.637Z,41.80
2023-05-06T23:17:07.161Z,41.28
2023-05-06T23:19:35.226Z,39.25
2023-05-06T23:22:03.258Z,40.45
2023-05-06T23:24:31.315Z,41.05
2023-05-06T23:26:59.331Z,40.47
2023-05-06T23:29:27.263Z,37.08
2023-05-06T23:31:55.340Z,36.70
2023-05-06T23:34:24.846Z,38.45
2023-05-06T23:36:52.827Z,38.65
2023-05-06T23:39:21.718Z,38.75
2023-05-06T23:41:49.698Z,39.13
2023-05-06T23:44:18.706Z,35.83
2023-05-06T23:46:46.694Z,42.15
2023-05-06T23:49:15.235Z,33.42
2023-05-06T23:51:44.637Z,37.47
2023-05-06T23:54:12.594Z,37.33
2023-05-06T23:56:40.747Z,35.40
2023-05-06T23:59:08.815Z,33.78
